createdAt,value
2023-01-13T00:09:15.130Z,16.59
2023-01-13T00:19:16.622Z,16.56
2023-01-13T00:29:18.409Z,16.55
2023-01-13T00:39:19.754Z,16.55
2023-01-13T00:49:21.178Z,16.55
2023-01-13T00:59:22.531Z,16.55
2023-01-13T01:09:24.089Z,16.53
2023-01-13T01:19:25.474Z,16.53
2023-01-13T01:29:26.897Z,16.50
2023-01-13T01:39:28.249Z,16.51
2023-01-13T01:49:31.539Z,16.51
2023-01-13T01:59:33.100Z,16.50
2023-01-13T02:09:34.661Z,16.46
2023-01-13T02:20:13.722Z,16.43
2023-01-13T02:30:52.491Z,16.42
2023-01-13T02:40:59.432Z,16.39
2023-01-13T02:51:04.487Z,16.32
2023-01-13T03:01:05.921Z,16.31
2023-01-13T03:11:08.920Z,16.30
2023-01-13T03:21:17.726Z,16.31
2023-01-13T03:31:20.420Z,16.26
2023-01-13T03:41:27.429Z,16.24
2023-01-13T03:51:29.755Z,16.20
2023-01-13T04:01:45.501Z,16.18
2023-01-13T04:11:56.156Z,16.19
2023-01-13T04:21:57.702Z,16.17
2023-01-13T04:31:59.084Z,16.15
2023-01-13T04:42:02.400Z,16.09
2023-01-13T04:52:03.864Z,16.05
2023-01-13T05:02:08.380Z,16.00
2023-01-13T05:12:29.202Z,16.00
2023-01-13T05:22:49.062Z,16.14
2023-01-13T05:32:51.576Z,16.39
2023-01-13T05:43:20.462Z,16.67
2023-01-13T05:53:22.232Z,16.94
2023-01-13T06:03:24.566Z,17.17
2023-01-13T06:13:26.091Z,17.33
2023-01-13T06:23:27.481Z,17.43
2023-01-13T06:33:30.706Z,17.49
2023-01-13T06:43:32.245Z,17.49
2023-01-13T06:53:33.623Z,17.47
2023-01-13T07:03:35.011Z,17.43
2023-01-13T07:13:55.183Z,17.44
2023-01-13T07:23:56.694Z,17.55
2023-01-13T07:33:58.227Z,17.70
2023-01-13T07:44:00.366Z,17.77
2023-01-13T07:54:01.938Z,17.75
2023-01-13T08:04:03.326Z,17.70
2023-01-13T08:14:04.857Z,17.66
2023-01-13T08:24:06.695Z,17.70
2023-01-13T08:34:08.069Z,17.77
2023-01-13T08:44:09.587Z,17.86
2023-01-13T08:54:11.400Z,17.89
2023-01-13T09:04:20.761Z,17.87
2023-01-13T09:14:23.384Z,17.86
2023-01-13T09:24:25.088Z,17.83
2023-01-13T09:34:45.127Z,17.87
2023-01-13T09:45:06.958Z,17.91
2023-01-13T09:55:30.126Z,17.99
2023-01-13T10:05:38.751Z,17.99
2023-01-13T10:15:42.877Z,18.04
2023-01-13T10:25:53.758Z,18.08
2023-01-13T10:36:14.270Z,18.09
2023-01-13T10:46:18.619Z,18.09
2023-01-13T10:56:20.733Z,18.15
2023-01-13T11:06:30.886Z,18.12
2023-01-13T11:16:32.445Z,18.12
2023-01-13T11:26:59.732Z,18.28
2023-01-13T11:37:01.888Z,18.30
2023-01-13T11:47:03.638Z,18.33
2023-01-13T11:57:33.888Z,18.34
2023-01-13T12:07:47.318Z,18.33
2023-01-13T12:18:27.738Z,18.36
2023-01-13T12:28:37.410Z,18.39
2023-01-13T12:38:44.376Z,18.41
2023-01-13T12:48:56.479Z,18.42
2023-01-13T12:59:16.298Z,18.44
2023-01-13T13:09:21.270Z,18.44
2023-01-13T13:19:22.664Z,18.45
2023-01-13T13:29:49.046Z,18.43
2023-01-13T13:40:08.768Z,18.34
2023-01-13T13:50:15.318Z,18.27
2023-01-13T14:00:31.893Z,18.16
2023-01-13T14:10:38.064Z,18.07
2023-01-13T14:20:40.452Z,18.01
2023-01-13T14:30:41.908Z,17.94
2023-01-13T14:40:45.536Z,17.87
2023-01-13T14:50:47.129Z,17.81
2023-01-13T15:00:49.570Z,17.76
2023-01-13T15:11:18.076Z,17.69
2023-01-13T15:21:19.518Z,17.64
2023-01-13T15:31:21.124Z,17.59
2023-01-13T15:41:42.605Z,17.50
2023-01-13T15:51:44.202Z,17.49
2023-01-13T16:01:45.671Z,17.42
2023-01-13T16:11:47.098Z,17.39
2023-01-13T16:21:48.492Z,17.35
2023-01-13T16:31:50.115Z,17.29
2023-01-13T16:41:51.694Z,17.25
2023-01-13T16:51:53.588Z,17.21
2023-01-13T17:01:55.120Z,17.16
2023-01-13T17:11:56.705Z,17.13
2023-01-13T17:21:58.241Z,17.07
2023-01-13T17:32:00.395Z,17.07
2023-01-13T17:42:02.414Z,17.04
2023-01-13T17:52:03.871Z,17.02
2023-01-13T18:02:05.552Z,17.00
2023-01-13T18:12:07.144Z,16.95
2023-01-13T18:22:31.210Z,16.91
2023-01-13T18:32:33.317Z,16.94
2023-01-13T18:42:58.744Z,16.93
2023-01-13T18:53:00.782Z,16.90
2023-01-13T19:13:07.225Z,16.86
2023-01-13T19:23:08.655Z,16.81
2023-01-13T19:33:10.063Z,16.79
2023-01-13T19:43:30.019Z,16.76
2023-01-13T19:53:31.882Z,16.74
2023-01-13T20:03:35.759Z,16.72
2023-01-13T20:13:37.149Z,16.72
2023-01-13T20:23:38.522Z,16.69
2023-01-13T20:33:39.918Z,16.64
2023-01-13T20:43:41.310Z,16.62
2023-01-13T20:53:42.839Z,16.61
2023-01-13T21:03:44.417Z,16.58
2023-01-13T21:14:18.174Z,16.57
2023-01-13T21:24:19.713Z,16.57
2023-01-13T21:34:21.102Z,16.53
2023-01-13T21:44:41.260Z,16.54
2023-01-13T21:55:00.913Z,16.53
2023-01-13T22:05:03.847Z,16.49
2023-01-13T22:15:05.803Z,16.50
2023-01-13T22:25:09.291Z,16.48
2023-01-13T22:35:11.021Z,16.48
2023-01-13T22:45:12.805Z,16.47
2023-01-13T22:55:14.223Z,16.40
2023-01-13T23:05:15.692Z,16.43
2023-01-13T23:15:17.165Z,16.40
2023-01-13T23:25:18.546Z,16.39
2023-01-13T23:35:19.931Z,16.38
2023-01-13T23:45:21.466Z,16.37
2023-01-13T23:55:22.881Z,16.36
